sensor_id;sensor_type;location;lat;lon;timestamp;pressure;altitude;pressure_sealevel;temperature;humidity
19672;BME280;9983;51.114;13.788;2023-06-14T00:03:17;99343.31;;;16.13;67.69
19672;BME280;9983;51.114;13.788;2023-06-14T00:08:18;99349.59;;;16.07;68.64
19672;BME280;9983;51.114;13.788;2023-06-14T00:13:19;99345.06;;;15.87;70.34
19672;BME280;9983;51.114;13.788;2023-06-14T00:18:19;99333.03;;;15.70;71.57
19672;BME280;9983;51.114;13.788;2023-06-14T00:23:19;99343.00;;;15.76;71.21
19672;BME280;9983;51.114;13.788;2023-06-14T00:28:20;99329.31;;;15.65;71.84
19672;BME280;9983;51.114;13.788;2023-06-14T00:33:20;99329.31;;;15.38;73.16
19672;BME280;9983;51.114;13.788;2023-06-14T00:38:21;99325.56;;;15.46;73.62
19672;BME280;9983;51.114;13.788;2023-06-14T00:43:21;99329.31;;;15.45;73.46
19672;BME280;9983;51.114;13.788;2023-06-14T00:48:22;99329.31;;;15.25;75.46
19672;BME280;9983;51.114;13.788;2023-06-14T00:53:23;99330.56;;;15.09;76.30
19672;BME280;9983;51.114;13.788;2023-06-14T00:58:26;99333.03;;;14.78;78.13
19672;BME280;9983;51.114;13.788;2023-06-14T01:03:26;99336.38;;;14.93;77.50
19672;BME280;9983;51.114;13.788;2023-06-14T01:08:51;99323.31;;;14.97;77.32
19672;BME280;9983;51.114;13.788;2023-06-14T01:13:58;99325.06;;;14.43;79.12
19672;BME280;9983;51.114;13.788;2023-06-14T01:19:00;99318.81;;;13.54;84.46
19672;BME280;9983;51.114;13.788;2023-06-14T01:24:02;99318.78;;;12.99;87.97
19672;BME280;9983;51.114;13.788;2023-06-14T01:29:03;99313.97;;;13.78;84.11
19672;BME280;9983;51.114;13.788;2023-06-14T01:34:04;99313.78;;;12.96;89.45
19672;BME280;9983;51.114;13.788;2023-06-14T01:39:05;99314.13;;;13.35;88.44
19672;BME280;9983;51.114;13.788;2023-06-14T01:44:06;99316.13;;;13.89;84.30
19672;BME280;9983;51.114;13.788;2023-06-14T01:49:07;99321.19;;;13.36;87.16
19672;BME280;9983;51.114;13.788;2023-06-14T01:54:08;99318.91;;;12.90;91.58
19672;BME280;9983;51.114;13.788;2023-06-14T01:59:08;99320.56;;;12.28;96.55
19672;BME280;9983;51.114;13.788;2023-06-14T02:04:08;99314.94;;;12.86;92.92
19672;BME280;9983;51.114;13.788;2023-06-14T02:09:09;99328.72;;;13.47;89.04
19672;BME280;9983;51.114;13.788;2023-06-14T02:14:09;99340.03;;;13.36;88.91
19672;BME280;9983;51.114;13.788;2023-06-14T02:19:11;99341.34;;;12.76;91.63
19672;BME280;9983;51.114;13.788;2023-06-14T02:24:12;99344.09;;;12.62;93.86
19672;BME280;9983;51.114;13.788;2023-06-14T02:29:13;99347.50;;;12.70;92.16
19672;BME280;9983;51.114;13.788;2023-06-14T02:34:15;99348.19;;;12.22;94.05
19672;BME280;9983;51.114;13.788;2023-06-14T02:39:16;99345.81;;;11.97;95.49
19672;BME280;9983;51.114;13.788;2023-06-14T02:44:18;99352.84;;;11.98;95.29
19672;BME280;9983;51.114;13.788;2023-06-14T02:49:19;99345.72;;;11.09;100.00
19672;BME280;9983;51.114;13.788;2023-06-14T02:54:19;99356.22;;;11.48;100.00
19672;BME280;9983;51.114;13.788;2023-06-14T02:59:19;99358.53;;;11.36;100.00
19672;BME280;9983;51.114;13.788;2023-06-14T03:04:21;99361.50;;;11.79;96.96
19672;BME280;9983;51.114;13.788;2023-06-14T03:09:22;99365.81;;;11.80;95.32
19672;BME280;9983;51.114;13.788;2023-06-14T03:14:23;99363.78;;;11.82;96.19
19672;BME280;9983;51.114;13.788;2023-06-14T03:19:23;99366.91;;;11.71;96.43
19672;BME280;9983;51.114;13.788;2023-06-14T03:24:24;99365.00;;;11.27;100.00
19672;BME280;9983;51.114;13.788;2023-06-14T03:29:27;99364.41;;;11.17;100.00
19672;BME280;9983;51.114;13.788;2023-06-14T03:34:27;99369.13;;;11.15;100.00
19672;BME280;9983;51.114;13.788;2023-06-14T03:39:27;99373.28;;;11.03;100.00
19672;BME280;9983;51.114;13.788;2023-06-14T03:44:28;99388.34;;;11.41;98.57
19672;BME280;9983;51.114;13.788;2023-06-14T03:49:28;99387.84;;;11.61;98.01
19672;BME280;9983;51.114;13.788;2023-06-14T03:54:28;99392.22;;;11.01;100.00
19672;BME280;9983;51.114;13.788;2023-06-14T03:59:28;99403.72;;;11.48;100.00
19672;BME280;9983;51.114;13.788;2023-06-14T04:04:29;99413.34;;;10.74;100.00
19672;BME280;9983;51.114;13.788;2023-06-14T04:09:29;99402.78;;;11.40;100.00
19672;BME280;9983;51.114;13.788;2023-06-14T04:14:30;99409.31;;;11.61;100.00
19672;BME280;9983;51.114;13.788;2023-06-14T04:19:30;99413.75;;;11.54;100.00
19672;BME280;9983;51.114;13.788;2023-06-14T04:24:31;99414.09;;;11.51;100.00
19672;BME280;9983;51.114;13.788;2023-06-14T04:29:32;99415.28;;;11.86;100.00
19672;BME280;9983;51.114;13.788;2023-06-14T04:34:32;99410.00;;;11.92;99.61
19672;BME280;9983;51.114;13.788;2023-06-14T04:39:33;99421.94;;;12.34;96.20
19672;BME280;9983;51.114;13.788;2023-06-14T04:44:34;99436.25;;;12.20;98.96
19672;BME280;9983;51.114;13.788;2023-06-14T04:49:34;99436.59;;;13.18;94.06
19672;BME280;9983;51.114;13.788;2023-06-14T04:54:35;99427.44;;;13.61;94.49
19672;BME280;9983;51.114;13.788;2023-06-14T04:59:37;99432.88;;;13.96;92.58
19672;BME280;9983;51.114;13.788;2023-06-14T05:04:38;99444.78;;;14.15;91.96
19672;BME280;9983;51.114;13.788;2023-06-14T05:09:39;99447.78;;;14.26;92.81
19672;BME280;9983;51.114;13.788;2023-06-14T05:14:40;99447.53;;;14.56;91.52
19672;BME280;9983;51.114;13.788;2023-06-14T05:19:40;99457.09;;;14.65;90.80
19672;BME280;9983;51.114;13.788;2023-06-14T05:24:41;99459.22;;;14.76;90.25
19672;BME280;9983;51.114;13.788;2023-06-14T05:29:42;99455.34;;;14.98;88.09
19672;BME280;9983;51.114;13.788;2023-06-14T05:34:43;99458.16;;;15.31;86.30
19672;BME280;9983;51.114;13.788;2023-06-14T05:39:43;99461.03;;;15.43;87.03
19672;BME280;9983;51.114;13.788;2023-06-14T05:44:43;99455.00;;;15.41;88.49
19672;BME280;9983;51.114;13.788;2023-06-14T05:49:43;99450.28;;;15.96;84.76
19672;BME280;9983;51.114;13.788;2023-06-14T05:54:44;99453.16;;;16.01;83.51
19672;BME280;9983;51.114;13.788;2023-06-14T05:59:44;99450.28;;;15.96;84.39
19672;BME280;9983;51.114;13.788;2023-06-14T06:04:45;99459.16;;;16.16;83.66
19672;BME280;9983;51.114;13.788;2023-06-14T06:09:45;99452.25;;;16.33;82.04
19672;BME280;9983;51.114;13.788;2023-06-14T06:14:45;99467.28;;;16.29;83.37
19672;BME280;9983;51.114;13.788;2023-06-14T06:19:45;99469.69;;;16.63;83.70
19672;BME280;9983;51.114;13.788;2023-06-14T06:24:46;99477.56;;;16.58;82.66
19672;BME280;9983;51.114;13.788;2023-06-14T06:29:46;99473.34;;;16.89;79.24
19672;BME280;9983;51.114;13.788;2023-06-14T06:34:48;99487.44;;;17.04;80.48
19672;BME280;9983;51.114;13.788;2023-06-14T06:39:48;99485.88;;;17.21;75.36
19672;BME280;9983;51.114;13.788;2023-06-14T06:44:48;99483.25;;;17.39;73.85
19672;BME280;9983;51.114;13.788;2023-06-14T06:49:49;99484.59;;;17.62;72.33
19672;BME280;9983;51.114;13.788;2023-06-14T06:54:49;99482.66;;;17.69;72.80
19672;BME280;9983;51.114;13.788;2023-06-14T06:59:50;99488.91;;;17.94;70.79
19672;BME280;9983;51.114;13.788;2023-06-14T07:04:50;99484.56;;;18.11;68.58
19672;BME280;9983;51.114;13.788;2023-06-14T07:09:51;99478.72;;;18.14;66.43
19672;BME280;9983;51.114;13.788;2023-06-14T07:14:52;99478.06;;;18.37;66.00
19672;BME280;9983;51.114;13.788;2023-06-14T07:19:52;99486.41;;;18.36;63.06
19672;BME280;9983;51.114;13.788;2023-06-14T07:24:53;99483.59;;;18.67;61.22
19672;BME280;9983;51.114;13.788;2023-06-14T07:29:53;99491.59;;;18.80;60.02
19672;BME280;9983;51.114;13.788;2023-06-14T07:34:53;99495.56;;;18.96;59.38
19672;BME280;9983;51.114;13.788;2023-06-14T07:39:54;99495.00;;;19.24;57.97
19672;BME280;9983;51.114;13.788;2023-06-14T07:44:54;99502.25;;;19.12;58.04
19672;BME280;9983;51.114;13.788;2023-06-14T07:49:55;99496.06;;;19.23;56.15
19672;BME280;9983;51.114;13.788;2023-06-14T07:54:55;99507.06;;;19.28;53.90
19672;BME280;9983;51.114;13.788;2023-06-14T07:59:55;99516.75;;;19.24;53.55
19672;BME280;9983;51.114;13.788;2023-06-14T08:04:55;99507.06;;;19.28;53.92
19672;BME280;9983;51.114;13.788;2023-06-14T08:09:56;99497.28;;;19.68;53.45
19672;BME280;9983;51.114;13.788;2023-06-14T08:14:56;99516.22;;;19.45;53.50
19672;BME280;9983;51.114;13.788;2023-06-14T08:19:56;99516.59;;;20.02;51.92
19672;BME280;9983;51.114;13.788;2023-06-14T08:24:57;99523.16;;;20.24;50.58
19672;BME280;9983;51.114;13.788;2023-06-14T08:29:57;99524.56;;;20.62;50.34
19672;BME280;9983;51.114;13.788;2023-06-14T08:34:57;99525.66;;;21.12;50.88
19672;BME280;9983;51.114;13.788;2023-06-14T08:39:58;99526.56;;;21.30;48.96
19672;BME280;9983;51.114;13.788;2023-06-14T08:44:58;99527.13;;;21.60;50.00
19672;BME280;9983;51.114;13.788;2023-06-14T08:49:59;99525.97;;;21.56;47.30
19672;BME280;9983;51.114;13.788;2023-06-14T08:54:59;99524.13;;;21.45;47.16
19672;BME280;9983;51.114;13.788;2023-06-14T09:00:03;99524.63;;;21.42;48.50
19672;BME280;9983;51.114;13.788;2023-06-14T09:05:10;99520.38;;;21.63;47.61
19672;BME280;9983;51.114;13.788;2023-06-14T09:10:15;99519.44;;;22.19;46.15
19672;BME280;9983;51.114;13.788;2023-06-14T09:15:15;99521.06;;;21.86;48.37
19672;BME280;9983;51.114;13.788;2023-06-14T09:20:15;99526.69;;;21.96;47.09
19672;BME280;9983;51.114;13.788;2023-06-14T09:25:18;99529.78;;;21.55;47.72
19672;BME280;9983;51.114;13.788;2023-06-14T09:30:20;99527.19;;;22.27;45.55
19672;BME280;9983;51.114;13.788;2023-06-14T09:35:20;99524.78;;;22.47;44.58
19672;BME280;9983;51.114;13.788;2023-06-14T09:40:21;99528.03;;;23.04;42.85
19672;BME280;9983;51.114;13.788;2023-06-14T09:45:22;99523.19;;;22.51;42.79
19672;BME280;9983;51.114;13.788;2023-06-14T09:50:22;99525.41;;;22.32;44.13
19672;BME280;9983;51.114;13.788;2023-06-14T09:55:23;99523.44;;;23.32;41.81
19672;BME280;9983;51.114;13.788;2023-06-14T10:00:26;99523.56;;;23.69;41.66
19672;BME280;9983;51.114;13.788;2023-06-14T10:05:27;99514.53;;;23.20;42.27
19672;BME280;9983;51.114;13.788;2023-06-14T10:10:28;99513.06;;;23.56;42.28
19672;BME280;9983;51.114;13.788;2023-06-14T10:15:42;99519.75;;;23.70;41.94
19672;BME280;9983;51.114;13.788;2023-06-14T10:21:12;99504.34;;;22.71;42.37
19672;BME280;9983;51.114;13.788;2023-06-14T10:26:20;99516.78;;;22.24;44.03
19672;BME280;9983;51.114;13.788;2023-06-14T10:31:40;99511.34;;;22.62;43.88
19672;BME280;9983;51.114;13.788;2023-06-14T10:36:42;99496.22;;;23.42;42.85
19672;BME280;9983;51.114;13.788;2023-06-14T10:41:52;99495.34;;;23.95;41.61
19672;BME280;9983;51.114;13.788;2023-06-14T10:46:52;99489.09;;;24.37;41.15
19672;BME280;9983;51.114;13.788;2023-06-14T10:51:57;99504.28;;;23.54;43.47
19672;BME280;9983;51.114;13.788;2023-06-14T10:56:58;99492.03;;;23.13;44.12
19672;BME280;9983;51.114;13.788;2023-06-14T11:12:34;99491.00;;;26.12;38.51
19672;BME280;9983;51.114;13.788;2023-06-14T11:17:36;99480.84;;;26.53;37.38
19672;BME280;9983;51.114;13.788;2023-06-14T11:22:41;99486.06;;;25.78;38.93
19672;BME280;9983;51.114;13.788;2023-06-14T11:27:42;99494.94;;;25.03;41.30
19672;BME280;9983;51.114;13.788;2023-06-14T11:32:53;99490.38;;;24.66;41.49
19672;BME280;9983;51.114;13.788;2023-06-14T11:37:56;99490.19;;;23.99;44.25
19672;BME280;9983;51.114;13.788;2023-06-14T11:43:01;99490.59;;;24.17;44.10
19672;BME280;9983;51.114;13.788;2023-06-14T11:48:02;99490.69;;;23.96;44.28
19672;BME280;9983;51.114;13.788;2023-06-14T11:53:02;99487.56;;;24.51;43.67
19672;BME280;9983;51.114;13.788;2023-06-14T11:58:07;99483.66;;;24.42;43.87
19672;BME280;9983;51.114;13.788;2023-06-14T12:03:07;99485.28;;;24.38;44.39
19672;BME280;9983;51.114;13.788;2023-06-14T12:08:07;99482.25;;;24.02;45.36
19672;BME280;9983;51.114;13.788;2023-06-14T12:13:08;99480.41;;;23.76;45.49
19672;BME280;9983;51.114;13.788;2023-06-14T12:18:09;99471.69;;;24.58;45.58
19672;BME280;9983;51.114;13.788;2023-06-14T12:23:11;99482.03;;;23.77;46.66
19672;BME280;9983;51.114;13.788;2023-06-14T12:28:11;99474.19;;;26.69;38.17
19672;BME280;9983;51.114;13.788;2023-06-14T12:33:11;99476.78;;;29.03;35.16
19672;BME280;9983;51.114;13.788;2023-06-14T12:38:11;99472.69;;;27.02;37.00
19672;BME280;9983;51.114;13.788;2023-06-14T12:43:12;99476.25;;;28.53;34.56
19672;BME280;9983;51.114;13.788;2023-06-14T12:48:12;99479.25;;;29.98;32.77
19672;BME280;9983;51.114;13.788;2023-06-14T12:53:12;99461.75;;;31.67;29.97
19672;BME280;9983;51.114;13.788;2023-06-14T12:58:13;99469.47;;;29.31;32.66
19672;BME280;9983;51.114;13.788;2023-06-14T13:03:14;99458.03;;;28.52;34.89
19672;BME280;9983;51.114;13.788;2023-06-14T13:08:14;99471.50;;;26.23;38.41
19672;BME280;9983;51.114;13.788;2023-06-14T13:13:14;99468.78;;;25.78;40.24
19672;BME280;9983;51.114;13.788;2023-06-14T13:18:15;99458.44;;;28.12;35.93
19672;BME280;9983;51.114;13.788;2023-06-14T13:23:16;99456.41;;;29.74;33.13
19672;BME280;9983;51.114;13.788;2023-06-14T13:28:16;99438.97;;;30.25;31.55
19672;BME280;9983;51.114;13.788;2023-06-14T13:33:16;99449.03;;;28.18;34.48
19672;BME280;9983;51.114;13.788;2023-06-14T13:38:16;99441.59;;;27.84;35.28
19672;BME280;9983;51.114;13.788;2023-06-14T13:43:17;99444.81;;;27.13;37.22
19672;BME280;9983;51.114;13.788;2023-06-14T13:48:17;99437.91;;;26.57;37.96
19672;BME280;9983;51.114;13.788;2023-06-14T13:53:18;99437.44;;;29.86;32.87
19672;BME280;9983;51.114;13.788;2023-06-14T13:58:19;99440.03;;;30.83;31.26
19672;BME280;9983;51.114;13.788;2023-06-14T14:03:19;99436.47;;;31.91;28.98
19672;BME280;9983;51.114;13.788;2023-06-14T14:08:19;99435.03;;;33.03;26.92
19672;BME280;9983;51.114;13.788;2023-06-14T14:13:20;99434.47;;;32.05;27.90
19672;BME280;9983;51.114;13.788;2023-06-14T14:18:21;99433.13;;;33.81;26.11
19672;BME280;9983;51.114;13.788;2023-06-14T14:23:21;99424.44;;;33.14;26.66
19672;BME280;9983;51.114;13.788;2023-06-14T14:28:22;99436.88;;;34.49;23.69
19672;BME280;9983;51.114;13.788;2023-06-14T14:33:22;99436.81;;;34.20;24.19
19672;BME280;9983;51.114;13.788;2023-06-14T14:38:22;99421.75;;;35.26;22.27
19672;BME280;9983;51.114;13.788;2023-06-14T14:43:23;99420.25;;;36.03;22.36
19672;BME280;9983;51.114;13.788;2023-06-14T14:48:23;99415.41;;;35.59;23.00
19672;BME280;9983;51.114;13.788;2023-06-14T14:53:23;99405.72;;;35.23;22.69
19672;BME280;9983;51.114;13.788;2023-06-14T14:58:23;99407.44;;;35.90;22.06
19672;BME280;9983;51.114;13.788;2023-06-14T15:03:24;99406.47;;;34.44;21.93
19672;BME280;9983;51.114;13.788;2023-06-14T15:08:24;99412.16;;;33.06;22.78
19672;BME280;9983;51.114;13.788;2023-06-14T15:13:24;99409.44;;;34.39;22.63
19672;BME280;9983;51.114;13.788;2023-06-14T15:18:24;99399.50;;;34.97;22.36
19672;BME280;9983;51.114;13.788;2023-06-14T15:23:25;99406.59;;;35.36;22.76
19672;BME280;9983;51.114;13.788;2023-06-14T15:28:25;99408.50;;;34.94;22.95
19672;BME280;9983;51.114;13.788;2023-06-14T15:33:28;99409.59;;;34.43;23.40
19672;BME280;9983;51.114;13.788;2023-06-14T15:38:28;99401.59;;;35.21;20.54
19672;BME280;9983;51.114;13.788;2023-06-14T15:43:29;99403.19;;;35.84;19.51
19672;BME280;9983;51.114;13.788;2023-06-14T15:48:29;99407.63;;;35.85;20.58
19672;BME280;9983;51.114;13.788;2023-06-14T15:53:30;99410.00;;;37.41;18.95
19672;BME280;9983;51.114;13.788;2023-06-14T15:58:30;99402.19;;;36.46;19.69
19672;BME280;9983;51.114;13.788;2023-06-14T16:03:30;99402.22;;;36.70;19.74
19672;BME280;9983;51.114;13.788;2023-06-14T16:08:30;99398.44;;;37.03;19.46
19672;BME280;9983;51.114;13.788;2023-06-14T16:13:31;99410.19;;;35.36;20.58
19672;BME280;9983;51.114;13.788;2023-06-14T16:18:31;99401.59;;;35.42;20.08
19672;BME280;9983;51.114;13.788;2023-06-14T16:23:32;99398.66;;;37.10;18.37
19672;BME280;9983;51.114;13.788;2023-06-14T16:28:32;99410.72;;;33.95;21.46
19672;BME280;9983;51.114;13.788;2023-06-14T16:33:32;99386.72;;;30.91;24.37
19672;BME280;9983;51.114;13.788;2023-06-14T16:38:33;99398.38;;;31.16;24.53
19672;BME280;9983;51.114;13.788;2023-06-14T16:43:33;99400.97;;;30.30;25.90
19672;BME280;9983;51.114;13.788;2023-06-14T16:48:34;99406.56;;;29.47;27.12
19672;BME280;9983;51.114;13.788;2023-06-14T16:53:34;99402.22;;;28.84;27.72
19672;BME280;9983;51.114;13.788;2023-06-14T16:58:35;99412.28;;;28.27;28.79
19672;BME280;9983;51.114;13.788;2023-06-14T17:03:35;99413.75;;;28.15;29.52
19672;BME280;9983;51.114;13.788;2023-06-14T17:08:35;99416.44;;;27.62;30.21
19672;BME280;9983;51.114;13.788;2023-06-14T17:13:35;99412.84;;;27.67;30.72
19672;BME280;9983;51.114;13.788;2023-06-14T17:18:36;99419.00;;;27.09;31.13
19672;BME280;9983;51.114;13.788;2023-06-14T17:23:36;99424.03;;;26.92;30.29
19672;BME280;9983;51.114;13.788;2023-06-14T17:28:37;99425.34;;;25.54;33.10
19672;BME280;9983;51.114;13.788;2023-06-14T17:33:38;99434.16;;;26.17;32.73
19672;BME280;9983;51.114;13.788;2023-06-14T17:38:39;99436.88;;;26.12;32.82
19672;BME280;9983;51.114;13.788;2023-06-14T17:43:39;99444.63;;;25.85;33.90
19672;BME280;9983;51.114;13.788;2023-06-14T17:48:39;99440.22;;;25.63;34.92
19672;BME280;9983;51.114;13.788;2023-06-14T17:53:40;99437.34;;;24.98;35.99
19672;BME280;9983;51.114;13.788;2023-06-14T17:58:40;99441.25;;;25.17;36.20
19672;BME280;9983;51.114;13.788;2023-06-14T18:03:40;99442.47;;;24.84;37.02
19672;BME280;9983;51.114;13.788;2023-06-14T18:08:41;99436.53;;;24.40;38.66
19672;BME280;9983;51.114;13.788;2023-06-14T18:13:43;99445.81;;;24.39;39.15
19672;BME280;9983;51.114;13.788;2023-06-14T18:18:43;99446.13;;;24.05;40.91
19672;BME280;9983;51.114;13.788;2023-06-14T18:23:44;99453.34;;;24.16;41.11
19672;BME280;9983;51.114;13.788;2023-06-14T18:28:45;99452.22;;;23.75;42.94
19672;BME280;9983;51.114;13.788;2023-06-14T18:33:46;99465.81;;;23.43;44.32
19672;BME280;9983;51.114;13.788;2023-06-14T18:38:46;99466.66;;;23.44;44.67
19672;BME280;9983;51.114;13.788;2023-06-14T18:43:46;99455.91;;;23.11;45.75
19672;BME280;9983;51.114;13.788;2023-06-14T18:48:46;99465.19;;;22.83;47.02
19672;BME280;9983;51.114;13.788;2023-06-14T18:53:48;99465.19;;;22.83;47.17
19672;BME280;9983;51.114;13.788;2023-06-14T18:58:48;99461.22;;;22.74;47.29
19672;BME280;9983;51.114;13.788;2023-06-14T19:03:48;99462.47;;;22.66;46.66
19672;BME280;9983;51.114;13.788;2023-06-14T19:08:48;99470.47;;;22.51;47.50
19672;BME280;9983;51.114;13.788;2023-06-14T19:13:49;99474.75;;;21.91;51.90
19672;BME280;9983;51.114;13.788;2023-06-14T19:18:49;99472.75;;;21.70;52.30
19672;BME280;9983;51.114;13.788;2023-06-14T19:23:49;99484.94;;;20.94;54.64
19672;BME280;9983;51.114;13.788;2023-06-14T19:28:50;99484.88;;;21.17;53.98
19672;BME280;9983;51.114;13.788;2023-06-14T19:33:50;99491.06;;;21.01;54.71
19672;BME280;9983;51.114;13.788;2023-06-14T19:38:52;99485.16;;;20.06;58.39
19672;BME280;9983;51.114;13.788;2023-06-14T19:43:53;99489.94;;;19.57;61.14
19672;BME280;9983;51.114;13.788;2023-06-14T19:48:53;99488.69;;;18.93;63.94
19672;BME280;9983;51.114;13.788;2023-06-14T19:53:53;99495.22;;;18.74;65.67
19672;BME280;9983;51.114;13.788;2023-06-14T19:58:54;99500.91;;;18.30;67.80
19672;BME280;9983;51.114;13.788;2023-06-14T20:03:54;99505.03;;;18.57;66.82
19672;BME280;9983;51.114;13.788;2023-06-14T20:08:54;99509.38;;;18.94;65.56
19672;BME280;9983;51.114;13.788;2023-06-14T20:13:55;99508.31;;;18.59;67.18
19672;BME280;9983;51.114;13.788;2023-06-14T20:18:55;99527.66;;;18.69;66.52
19672;BME280;9983;51.114;13.788;2023-06-14T20:23:56;99526.84;;;19.17;63.91
19672;BME280;9983;51.114;13.788;2023-06-14T20:28:56;99534.19;;;18.18;68.80
19672;BME280;9983;51.114;13.788;2023-06-14T20:33:57;99520.00;;;17.67;72.13
19672;BME280;9983;51.114;13.788;2023-06-14T20:38:57;99521.78;;;18.04;70.84
19672;BME280;9983;51.114;13.788;2023-06-14T20:43:58;99511.47;;;18.38;67.80
19672;BME280;9983;51.114;13.788;2023-06-14T20:49:01;99525.56;;;17.40;73.40
19672;BME280;9983;51.114;13.788;2023-06-14T20:54:01;99532.31;;;17.31;74.90
19672;BME280;9983;51.114;13.788;2023-06-14T20:59:01;99526.94;;;17.18;75.33
19672;BME280;9983;51.114;13.788;2023-06-14T21:04:01;99522.28;;;17.32;74.75
19672;BME280;9983;51.114;13.788;2023-06-14T21:09:02;99528.72;;;16.93;76.63
19672;BME280;9983;51.114;13.788;2023-06-14T21:14:03;99526.31;;;16.72;78.23
19672;BME280;9983;51.114;13.788;2023-06-14T21:19:03;99519.44;;;17.20;75.72
19672;BME280;9983;51.114;13.788;2023-06-14T21:24:04;99523.84;;;16.63;78.31
19672;BME280;9983;51.114;13.788;2023-06-14T21:29:04;99521.31;;;16.68;77.88
19672;BME280;9983;51.114;13.788;2023-06-14T21:34:05;99527.19;;;16.39;79.28
19672;BME280;9983;51.114;13.788;2023-06-14T21:39:05;99530.13;;;16.18;80.79
19672;BME280;9983;51.114;13.788;2023-06-14T21:44:05;99530.56;;;15.88;83.11
19672;BME280;9983;51.114;13.788;2023-06-14T21:49:05;99524.28;;;16.27;80.35
19672;BME280;9983;51.114;13.788;2023-06-14T21:54:06;99522.16;;;16.62;78.19
19672;BME280;9983;51.114;13.788;2023-06-14T21:59:06;99527.63;;;15.83;82.40
19672;BME280;9983;51.114;13.788;2023-06-14T22:04:06;99526.38;;;16.12;80.81
19672;BME280;9983;51.114;13.788;2023-06-14T22:09:06;99534.72;;;15.98;81.42
19672;BME280;9983;51.114;13.788;2023-06-14T22:14:08;99532.19;;;15.76;82.99
19672;BME280;9983;51.114;13.788;2023-06-14T22:19:11;99527.63;;;15.77;82.99
19672;BME280;9983;51.114;13.788;2023-06-14T22:24:11;99520.09;;;15.46;84.59
19672;BME280;9983;51.114;13.788;2023-06-14T22:29:11;99529.41;;;14.76;89.78
19672;BME280;9983;51.114;13.788;2023-06-14T22:34:12;99522.31;;;14.75;90.10
19672;BME280;9983;51.114;13.788;2023-06-14T22:39:12;99522.22;;;14.96;88.31
19672;BME280;9983;51.114;13.788;2023-06-14T22:44:13;99534.16;;;15.22;86.33
19672;BME280;9983;51.114;13.788;2023-06-14T22:49:16;99522.91;;;15.11;86.83
19672;BME280;9983;51.114;13.788;2023-06-14T22:54:17;99524.94;;;14.96;87.08
19672;BME280;9983;51.114;13.788;2023-06-14T22:59:17;99524.47;;;14.86;87.90
19672;BME280;9983;51.114;13.788;2023-06-14T23:04:18;99524.94;;;14.96;87.38
19672;BME280;9983;51.114;13.788;2023-06-14T23:09:20;99522.06;;;15.04;86.38
19672;BME280;9983;51.114;13.788;2023-06-14T23:14:21;99520.03;;;15.19;85.14
19672;BME280;9983;51.114;13.788;2023-06-14T23:19:23;99524.91;;;15.57;83.03
19672;BME280;9983;51.114;13.788;2023-06-14T23:24:23;99532.66;;;14.65;89.05
19672;BME280;9983;51.114;13.788;2023-06-14T23:29:25;99529.94;;;14.30;91.48
19672;BME280;9983;51.114;13.788;2023-06-14T23:34:27;99525.31;;;14.46;90.99
19672;BME280;9983;51.114;13.788;2023-06-14T23:39:29;99524.88;;;14.14;92.62
19672;BME280;9983;51.114;13.788;2023-06-14T23:44:29;99515.22;;;14.61;89.72
19672;BME280;9983;51.114;13.788;2023-06-14T23:49:30;99513.66;;;14.17;92.62
19672;BME280;9983;51.114;13.788;2023-06-14T23:54:30;99518.53;;;14.00;93.63
19672;BME280;9983;51.114;13.788;2023-06-14T23:59:33;99509.94;;;14.18;93.31
